sensor_id;sensor_type;location;lat;lon;timestamp;P1;durP1;ratioP1;P2;durP2;ratioP2
10801;SDS011;5453;50.852;7.102;2022-12-07T00:00:01;22.08;;;10.40;;
10801;SDS011;5453;50.852;7.102;2022-12-07T00:02:35;19.50;;;9.90;;
10801;SDS011;5453;50.852;7.102;2022-12-07T00:05:07;19.80;;;9.57;;
10801;SDS011;5453;50.852;7.102;2022-12-07T00:07:40;22.52;;;10.43;;
10801;SDS011;5453;50.852;7.102;2022-12-07T00:10:13;23.63;;;10.60;;
10801;SDS011;5453;50.852;7.102;2022-12-07T00:12:45;23.90;;;11.80;;
10801;SDS011;5453;50.852;7.102;2022-12-07T00:15:17;25.45;;;12.02;;
10801;SDS011;5453;50.852;7.102;2022-12-07T00:17:49;21.95;;;10.70;;
10801;SDS011;5453;50.852;7.102;2022-12-07T00:20:21;19.25;;;9.70;;
10801;SDS011;5453;50.852;7.102;2022-12-07T00:22:54;22.90;;;10.43;;
10801;SDS011;5453;50.852;7.102;2022-12-07T00:25:27;25.55;;;11.85;;
10801;SDS011;5453;50.852;7.102;2022-12-07T00:27:59;24.73;;;10.63;;
10801;SDS011;5453;50.852;7.102;2022-12-07T00:30:31;20.92;;;9.63;;
10801;SDS011;5453;50.852;7.102;2022-12-07T00:33:03;19.23;;;9.52;;
10801;SDS011;5453;50.852;7.102;2022-12-07T00:35:35;19.33;;;9.77;;
10801;SDS011;5453;50.852;7.102;2022-12-07T00:38:09;21.40;;;10.20;;
10801;SDS011;5453;50.852;7.102;2022-12-07T00:40:41;21.75;;;10.60;;
10801;SDS011;5453;50.852;7.102;2022-12-07T00:43:13;22.30;;;10.82;;
10801;SDS011;5453;50.852;7.102;2022-12-07T00:45:45;25.15;;;11.80;;
10801;SDS011;5453;50.852;7.102;2022-12-07T00:48:17;19.92;;;9.40;;
10801;SDS011;5453;50.852;7.102;2022-12-07T00:50:49;25.52;;;11.18;;
10801;SDS011;5453;50.852;7.102;2022-12-07T00:53:22;22.92;;;10.77;;
10801;SDS011;5453;50.852;7.102;2022-12-07T00:55:55;21.55;;;11.27;;
10801;SDS011;5453;50.852;7.102;2022-12-07T00:58:27;22.23;;;10.82;;
10801;SDS011;5453;50.852;7.102;2022-12-07T01:00:59;24.45;;;11.05;;
10801;SDS011;5453;50.852;7.102;2022-12-07T01:03:33;19.25;;;9.30;;
10801;SDS011;5453;50.852;7.102;2022-12-07T01:06:05;22.70;;;11.50;;
10801;SDS011;5453;50.852;7.102;2022-12-07T01:08:39;24.38;;;10.40;;
10801;SDS011;5453;50.852;7.102;2022-12-07T01:11:12;19.20;;;9.90;;
10801;SDS011;5453;50.852;7.102;2022-12-07T01:13:46;20.52;;;8.80;;
10801;SDS011;5453;50.852;7.102;2022-12-07T01:16:21;18.80;;;8.52;;
10801;SDS011;5453;50.852;7.102;2022-12-07T01:18:57;17.75;;;8.63;;
10801;SDS011;5453;50.852;7.102;2022-12-07T01:21:30;18.52;;;9.38;;
10801;SDS011;5453;50.852;7.102;2022-12-07T01:24:09;18.48;;;9.13;;
10801;SDS011;5453;50.852;7.102;2022-12-07T01:26:42;20.30;;;10.00;;
10801;SDS011;5453;50.852;7.102;2022-12-07T01:29:14;23.52;;;10.88;;
10801;SDS011;5453;50.852;7.102;2022-12-07T01:31:48;23.77;;;10.68;;
10801;SDS011;5453;50.852;7.102;2022-12-07T01:34:21;26.83;;;11.60;;
10801;SDS011;5453;50.852;7.102;2022-12-07T01:36:53;25.55;;;12.02;;
10801;SDS011;5453;50.852;7.102;2022-12-07T01:39:27;25.85;;;11.35;;
10801;SDS011;5453;50.852;7.102;2022-12-07T01:41:59;24.63;;;10.60;;
10801;SDS011;5453;50.852;7.102;2022-12-07T01:44:31;23.98;;;11.23;;
10801;SDS011;5453;50.852;7.102;2022-12-07T01:47:03;24.60;;;11.57;;
10801;SDS011;5453;50.852;7.102;2022-12-07T01:49:36;24.42;;;12.27;;
10801;SDS011;5453;50.852;7.102;2022-12-07T01:52:13;26.20;;;12.02;;
10801;SDS011;5453;50.852;7.102;2022-12-07T01:54:51;24.92;;;11.75;;
10801;SDS011;5453;50.852;7.102;2022-12-07T01:57:27;26.10;;;12.13;;
10801;SDS011;5453;50.852;7.102;2022-12-07T02:00:01;25.17;;;11.55;;
10801;SDS011;5453;50.852;7.102;2022-12-07T02:02:45;26.08;;;12.95;;
10801;SDS011;5453;50.852;7.102;2022-12-07T02:05:23;27.42;;;13.13;;
10801;SDS011;5453;50.852;7.102;2022-12-07T02:07:56;23.73;;;12.00;;
10801;SDS011;5453;50.852;7.102;2022-12-07T02:10:32;31.85;;;13.25;;
10801;SDS011;5453;50.852;7.102;2022-12-07T02:13:05;26.23;;;12.57;;
10801;SDS011;5453;50.852;7.102;2022-12-07T02:15:45;27.17;;;12.90;;
10801;SDS011;5453;50.852;7.102;2022-12-07T02:18:34;24.25;;;11.80;;
10801;SDS011;5453;50.852;7.102;2022-12-07T02:21:22;25.27;;;11.57;;
10801;SDS011;5453;50.852;7.102;2022-12-07T02:24:22;28.25;;;12.52;;
10801;SDS011;5453;50.852;7.102;2022-12-07T02:30:11;32.45;;;14.48;;
10801;SDS011;5453;50.852;7.102;2022-12-07T02:32:47;31.38;;;13.52;;
10801;SDS011;5453;50.852;7.102;2022-12-07T02:38:03;31.25;;;13.07;;
10801;SDS011;5453;50.852;7.102;2022-12-07T02:40:46;25.35;;;12.27;;
10801;SDS011;5453;50.852;7.102;2022-12-07T02:43:24;24.35;;;11.85;;
10801;SDS011;5453;50.852;7.102;2022-12-07T02:46:01;26.08;;;11.68;;
10801;SDS011;5453;50.852;7.102;2022-12-07T02:48:37;28.15;;;12.90;;
10801;SDS011;5453;50.852;7.102;2022-12-07T02:51:11;27.58;;;13.18;;
10801;SDS011;5453;50.852;7.102;2022-12-07T02:53:43;25.45;;;12.13;;
10801;SDS011;5453;50.852;7.102;2022-12-07T02:56:18;22.50;;;11.10;;
10801;SDS011;5453;50.852;7.102;2022-12-07T02:59:02;22.20;;;10.65;;
10801;SDS011;5453;50.852;7.102;2022-12-07T03:01:50;29.10;;;12.65;;
10801;SDS011;5453;50.852;7.102;2022-12-07T03:04:33;26.85;;;12.27;;
10801;SDS011;5453;50.852;7.102;2022-12-07T03:07:18;23.13;;;11.85;;
10801;SDS011;5453;50.852;7.102;2022-12-07T03:10:00;27.88;;;11.68;;
10801;SDS011;5453;50.852;7.102;2022-12-07T03:12:42;27.63;;;12.57;;
10801;SDS011;5453;50.852;7.102;2022-12-07T03:15:25;23.95;;;12.20;;
10801;SDS011;5453;50.852;7.102;2022-12-07T03:18:04;26.75;;;11.52;;
10801;SDS011;5453;50.852;7.102;2022-12-07T03:20:38;22.48;;;10.93;;
10801;SDS011;5453;50.852;7.102;2022-12-07T03:23:13;24.75;;;10.57;;
10801;SDS011;5453;50.852;7.102;2022-12-07T03:25:48;23.08;;;11.82;;
10801;SDS011;5453;50.852;7.102;2022-12-07T03:28:26;29.00;;;12.15;;
10801;SDS011;5453;50.852;7.102;2022-12-07T03:31:05;23.92;;;10.43;;
10801;SDS011;5453;50.852;7.102;2022-12-07T03:33:46;26.98;;;11.73;;
10801;SDS011;5453;50.852;7.102;2022-12-07T03:36:29;26.75;;;12.10;;
10801;SDS011;5453;50.852;7.102;2022-12-07T03:39:07;25.10;;;11.75;;
10801;SDS011;5453;50.852;7.102;2022-12-07T03:41:49;25.90;;;11.55;;
10801;SDS011;5453;50.852;7.102;2022-12-07T03:44:22;24.45;;;11.95;;
10801;SDS011;5453;50.852;7.102;2022-12-07T03:46:58;24.58;;;11.57;;
10801;SDS011;5453;50.852;7.102;2022-12-07T03:49:37;27.08;;;12.98;;
10801;SDS011;5453;50.852;7.102;2022-12-07T03:52:16;25.38;;;12.38;;
10801;SDS011;5453;50.852;7.102;2022-12-07T03:54:56;26.90;;;11.52;;
10801;SDS011;5453;50.852;7.102;2022-12-07T03:57:31;24.15;;;11.07;;
10801;SDS011;5453;50.852;7.102;2022-12-07T04:00:06;26.95;;;11.68;;
10801;SDS011;5453;50.852;7.102;2022-12-07T04:02:43;20.67;;;10.40;;
10801;SDS011;5453;50.852;7.102;2022-12-07T04:05:17;21.98;;;9.98;;
10801;SDS011;5453;50.852;7.102;2022-12-07T04:07:50;22.73;;;9.80;;
10801;SDS011;5453;50.852;7.102;2022-12-07T04:10:22;24.77;;;11.43;;
10801;SDS011;5453;50.852;7.102;2022-12-07T04:12:54;22.95;;;10.63;;
10801;SDS011;5453;50.852;7.102;2022-12-07T04:15:26;26.00;;;11.43;;
10801;SDS011;5453;50.852;7.102;2022-12-07T04:17:59;27.05;;;11.88;;
10801;SDS011;5453;50.852;7.102;2022-12-07T04:20:32;25.30;;;11.35;;
10801;SDS011;5453;50.852;7.102;2022-12-07T04:23:04;21.35;;;10.45;;
10801;SDS011;5453;50.852;7.102;2022-12-07T04:25:36;21.00;;;10.35;;
10801;SDS011;5453;50.852;7.102;2022-12-07T04:28:08;22.90;;;10.90;;
10801;SDS011;5453;50.852;7.102;2022-12-07T04:30:40;20.20;;;9.23;;
10801;SDS011;5453;50.852;7.102;2022-12-07T04:33:12;21.52;;;9.60;;
10801;SDS011;5453;50.852;7.102;2022-12-07T04:35:46;20.48;;;9.40;;
10801;SDS011;5453;50.852;7.102;2022-12-07T04:38:18;19.73;;;9.85;;
10801;SDS011;5453;50.852;7.102;2022-12-07T04:40:50;18.58;;;8.45;;
10801;SDS011;5453;50.852;7.102;2022-12-07T04:43:22;16.67;;;8.77;;
10801;SDS011;5453;50.852;7.102;2022-12-07T04:45:54;23.35;;;10.10;;
10801;SDS011;5453;50.852;7.102;2022-12-07T04:48:26;22.13;;;10.02;;
10801;SDS011;5453;50.852;7.102;2022-12-07T04:51:01;21.00;;;10.02;;
10801;SDS011;5453;50.852;7.102;2022-12-07T04:53:34;24.83;;;11.05;;
10801;SDS011;5453;50.852;7.102;2022-12-07T04:56:06;23.25;;;11.32;;
10801;SDS011;5453;50.852;7.102;2022-12-07T04:58:38;23.00;;;10.60;;
10801;SDS011;5453;50.852;7.102;2022-12-07T05:01:11;23.17;;;9.77;;
10801;SDS011;5453;50.852;7.102;2022-12-07T05:03:44;19.42;;;8.85;;
10801;SDS011;5453;50.852;7.102;2022-12-07T05:06:17;20.60;;;10.27;;
10801;SDS011;5453;50.852;7.102;2022-12-07T05:08:50;18.88;;;9.15;;
10801;SDS011;5453;50.852;7.102;2022-12-07T05:11:22;26.08;;;11.13;;
10801;SDS011;5453;50.852;7.102;2022-12-07T05:14:10;20.77;;;9.52;;
10801;SDS011;5453;50.852;7.102;2022-12-07T05:16:45;20.05;;;9.38;;
10801;SDS011;5453;50.852;7.102;2022-12-07T05:19:19;23.45;;;11.70;;
10801;SDS011;5453;50.852;7.102;2022-12-07T05:21:53;23.42;;;9.90;;
10801;SDS011;5453;50.852;7.102;2022-12-07T05:24:25;25.77;;;10.63;;
10801;SDS011;5453;50.852;7.102;2022-12-07T05:26:57;22.25;;;11.23;;
10801;SDS011;5453;50.852;7.102;2022-12-07T05:29:29;20.55;;;9.85;;
10801;SDS011;5453;50.852;7.102;2022-12-07T05:32:01;22.75;;;10.18;;
10801;SDS011;5453;50.852;7.102;2022-12-07T05:34:34;23.23;;;10.95;;
10801;SDS011;5453;50.852;7.102;2022-12-07T05:37:07;23.63;;;11.45;;
10801;SDS011;5453;50.852;7.102;2022-12-07T05:39:39;20.42;;;9.38;;
10801;SDS011;5453;50.852;7.102;2022-12-07T05:42:12;22.35;;;10.25;;
10801;SDS011;5453;50.852;7.102;2022-12-07T05:44:45;21.52;;;8.95;;
10801;SDS011;5453;50.852;7.102;2022-12-07T05:47:18;23.70;;;10.38;;
10801;SDS011;5453;50.852;7.102;2022-12-07T05:49:50;20.20;;;10.00;;
10801;SDS011;5453;50.852;7.102;2022-12-07T05:52:24;27.63;;;11.38;;
10801;SDS011;5453;50.852;7.102;2022-12-07T05:54:56;25.70;;;11.50;;
10801;SDS011;5453;50.852;7.102;2022-12-07T05:57:28;21.65;;;10.20;;
10801;SDS011;5453;50.852;7.102;2022-12-07T06:00:00;20.35;;;9.55;;
10801;SDS011;5453;50.852;7.102;2022-12-07T06:02:42;28.35;;;12.60;;
10801;SDS011;5453;50.852;7.102;2022-12-07T06:05:14;22.67;;;10.93;;
10801;SDS011;5453;50.852;7.102;2022-12-07T06:07:48;24.33;;;11.35;;
10801;SDS011;5453;50.852;7.102;2022-12-07T06:10:20;24.65;;;9.73;;
10801;SDS011;5453;50.852;7.102;2022-12-07T06:12:53;26.15;;;11.63;;
10801;SDS011;5453;50.852;7.102;2022-12-07T06:15:24;22.77;;;10.65;;
10801;SDS011;5453;50.852;7.102;2022-12-07T06:17:56;23.45;;;10.85;;
10801;SDS011;5453;50.852;7.102;2022-12-07T06:20:29;23.30;;;9.68;;
10801;SDS011;5453;50.852;7.102;2022-12-07T06:23:03;20.35;;;9.45;;
10801;SDS011;5453;50.852;7.102;2022-12-07T06:25:36;19.83;;;8.52;;
10801;SDS011;5453;50.852;7.102;2022-12-07T06:28:08;15.55;;;7.28;;
10801;SDS011;5453;50.852;7.102;2022-12-07T06:30:40;17.55;;;8.18;;
10801;SDS011;5453;50.852;7.102;2022-12-07T06:33:12;13.73;;;7.00;;
10801;SDS011;5453;50.852;7.102;2022-12-07T06:35:45;14.23;;;5.63;;
10801;SDS011;5453;50.852;7.102;2022-12-07T06:38:19;17.30;;;7.30;;
10801;SDS011;5453;50.852;7.102;2022-12-07T06:40:52;15.00;;;7.13;;
10801;SDS011;5453;50.852;7.102;2022-12-07T06:43:24;13.23;;;6.32;;
10801;SDS011;5453;50.852;7.102;2022-12-07T06:45:57;13.82;;;6.75;;
10801;SDS011;5453;50.852;7.102;2022-12-07T06:48:29;15.45;;;6.72;;
10801;SDS011;5453;50.852;7.102;2022-12-07T06:51:02;14.55;;;6.90;;
10801;SDS011;5453;50.852;7.102;2022-12-07T06:53:36;16.63;;;7.53;;
10801;SDS011;5453;50.852;7.102;2022-12-07T06:56:10;14.68;;;7.22;;
10801;SDS011;5453;50.852;7.102;2022-12-07T06:58:42;16.55;;;7.88;;
10801;SDS011;5453;50.852;7.102;2022-12-07T07:01:16;14.70;;;7.72;;
10801;SDS011;5453;50.852;7.102;2022-12-07T07:03:50;15.60;;;6.50;;
10801;SDS011;5453;50.852;7.102;2022-12-07T07:06:23;14.20;;;6.40;;
10801;SDS011;5453;50.852;7.102;2022-12-07T07:08:56;15.80;;;6.53;;
10801;SDS011;5453;50.852;7.102;2022-12-07T07:11:28;14.93;;;7.80;;
10801;SDS011;5453;50.852;7.102;2022-12-07T07:14:00;17.67;;;8.35;;
10801;SDS011;5453;50.852;7.102;2022-12-07T07:16:33;17.33;;;7.53;;
10801;SDS011;5453;50.852;7.102;2022-12-07T07:19:05;17.67;;;7.85;;
10801;SDS011;5453;50.852;7.102;2022-12-07T07:21:37;16.95;;;7.97;;
10801;SDS011;5453;50.852;7.102;2022-12-07T07:24:10;19.17;;;8.73;;
10801;SDS011;5453;50.852;7.102;2022-12-07T07:26:42;17.20;;;7.47;;
10801;SDS011;5453;50.852;7.102;2022-12-07T07:29:14;24.52;;;10.52;;
10801;SDS011;5453;50.852;7.102;2022-12-07T07:31:46;22.13;;;8.90;;
10801;SDS011;5453;50.852;7.102;2022-12-07T07:34:18;18.95;;;9.50;;
10801;SDS011;5453;50.852;7.102;2022-12-07T07:36:51;20.27;;;9.05;;
10801;SDS011;5453;50.852;7.102;2022-12-07T07:39:24;19.60;;;9.90;;
10801;SDS011;5453;50.852;7.102;2022-12-07T07:41:56;20.52;;;9.18;;
10801;SDS011;5453;50.852;7.102;2022-12-07T07:44:31;20.98;;;9.18;;
10801;SDS011;5453;50.852;7.102;2022-12-07T07:47:03;18.85;;;9.23;;
10801;SDS011;5453;50.852;7.102;2022-12-07T07:49:35;19.00;;;8.02;;
10801;SDS011;5453;50.852;7.102;2022-12-07T07:52:07;18.20;;;8.20;;
10801;SDS011;5453;50.852;7.102;2022-12-07T07:54:40;14.40;;;7.78;;
10801;SDS011;5453;50.852;7.102;2022-12-07T07:57:13;16.20;;;7.78;;
10801;SDS011;5453;50.852;7.102;2022-12-07T07:59:45;17.27;;;7.47;;
10801;SDS011;5453;50.852;7.102;2022-12-07T08:02:18;14.93;;;7.63;;
10801;SDS011;5453;50.852;7.102;2022-12-07T08:04:52;14.20;;;6.72;;
10801;SDS011;5453;50.852;7.102;2022-12-07T08:07:24;14.00;;;6.75;;
10801;SDS011;5453;50.852;7.102;2022-12-07T08:10:00;15.82;;;7.35;;
10801;SDS011;5453;50.852;7.102;2022-12-07T08:12:37;17.50;;;7.97;;
10801;SDS011;5453;50.852;7.102;2022-12-07T08:15:32;16.23;;;8.05;;
10801;SDS011;5453;50.852;7.102;2022-12-07T08:18:04;18.42;;;8.30;;
10801;SDS011;5453;50.852;7.102;2022-12-07T08:20:37;15.27;;;7.70;;
10801;SDS011;5453;50.852;7.102;2022-12-07T08:23:10;17.08;;;8.55;;
10801;SDS011;5453;50.852;7.102;2022-12-07T08:25:44;15.07;;;7.82;;
10801;SDS011;5453;50.852;7.102;2022-12-07T08:28:16;15.98;;;7.88;;
10801;SDS011;5453;50.852;7.102;2022-12-07T08:30:48;16.50;;;7.68;;
10801;SDS011;5453;50.852;7.102;2022-12-07T08:33:20;14.90;;;6.50;;
10801;SDS011;5453;50.852;7.102;2022-12-07T08:35:53;17.77;;;8.98;;
10801;SDS011;5453;50.852;7.102;2022-12-07T08:38:25;17.02;;;7.63;;
10801;SDS011;5453;50.852;7.102;2022-12-07T08:40:59;17.95;;;7.55;;
10801;SDS011;5453;50.852;7.102;2022-12-07T08:43:31;13.38;;;6.68;;
10801;SDS011;5453;50.852;7.102;2022-12-07T08:46:06;15.13;;;7.28;;
10801;SDS011;5453;50.852;7.102;2022-12-07T08:48:44;16.02;;;7.53;;
10801;SDS011;5453;50.852;7.102;2022-12-07T08:51:19;14.45;;;7.10;;
10801;SDS011;5453;50.852;7.102;2022-12-07T08:53:53;14.27;;;6.97;;
10801;SDS011;5453;50.852;7.102;2022-12-07T08:56:28;15.60;;;7.07;;
10801;SDS011;5453;50.852;7.102;2022-12-07T08:59:00;14.15;;;7.47;;
10801;SDS011;5453;50.852;7.102;2022-12-07T09:01:32;14.75;;;6.70;;
10801;SDS011;5453;50.852;7.102;2022-12-07T09:04:05;18.77;;;8.90;;
10801;SDS011;5453;50.852;7.102;2022-12-07T09:06:37;18.85;;;8.65;;
10801;SDS011;5453;50.852;7.102;2022-12-07T09:09:10;17.20;;;7.63;;
10801;SDS011;5453;50.852;7.102;2022-12-07T09:11:46;17.52;;;8.45;;
10801;SDS011;5453;50.852;7.102;2022-12-07T09:14:18;19.35;;;8.85;;
10801;SDS011;5453;50.852;7.102;2022-12-07T09:16:50;18.10;;;8.90;;
10801;SDS011;5453;50.852;7.102;2022-12-07T09:19:22;21.50;;;8.70;;
10801;SDS011;5453;50.852;7.102;2022-12-07T09:21:54;15.43;;;7.28;;
10801;SDS011;5453;50.852;7.102;2022-12-07T09:24:26;18.80;;;8.68;;
10801;SDS011;5453;50.852;7.102;2022-12-07T09:27:00;18.75;;;8.73;;
10801;SDS011;5453;50.852;7.102;2022-12-07T09:29:32;15.88;;;7.95;;
10801;SDS011;5453;50.852;7.102;2022-12-07T09:32:04;17.80;;;8.05;;
10801;SDS011;5453;50.852;7.102;2022-12-07T09:34:37;13.75;;;7.30;;
10801;SDS011;5453;50.852;7.102;2022-12-07T09:37:09;14.45;;;6.80;;
10801;SDS011;5453;50.852;7.102;2022-12-07T09:39:41;16.42;;;8.27;;
10801;SDS011;5453;50.852;7.102;2022-12-07T09:42:18;20.45;;;9.02;;
10801;SDS011;5453;50.852;7.102;2022-12-07T09:45:00;19.75;;;9.82;;
10801;SDS011;5453;50.852;7.102;2022-12-07T09:47:34;15.77;;;7.07;;
10801;SDS011;5453;50.852;7.102;2022-12-07T09:50:07;18.83;;;8.63;;
10801;SDS011;5453;50.852;7.102;2022-12-07T09:52:45;16.58;;;8.75;;
10801;SDS011;5453;50.852;7.102;2022-12-07T09:55:21;17.90;;;8.40;;
10801;SDS011;5453;50.852;7.102;2022-12-07T09:57:58;18.10;;;8.48;;
10801;SDS011;5453;50.852;7.102;2022-12-07T10:00:31;18.77;;;8.70;;
10801;SDS011;5453;50.852;7.102;2022-12-07T10:03:03;17.48;;;7.82;;
10801;SDS011;5453;50.852;7.102;2022-12-07T10:05:36;15.57;;;7.82;;
10801;SDS011;5453;50.852;7.102;2022-12-07T10:08:12;14.63;;;7.30;;
10801;SDS011;5453;50.852;7.102;2022-12-07T10:10:48;15.55;;;7.57;;
10801;SDS011;5453;50.852;7.102;2022-12-07T10:13:34;17.25;;;8.55;;
10801;SDS011;5453;50.852;7.102;2022-12-07T10:16:24;15.82;;;7.68;;
10801;SDS011;5453;50.852;7.102;2022-12-07T10:19:18;15.55;;;7.63;;
10801;SDS011;5453;50.852;7.102;2022-12-07T10:22:02;16.27;;;7.75;;
10801;SDS011;5453;50.852;7.102;2022-12-07T10:24:42;19.90;;;8.85;;
10801;SDS011;5453;50.852;7.102;2022-12-07T10:27:19;16.48;;;8.07;;
10801;SDS011;5453;50.852;7.102;2022-12-07T10:29:54;18.80;;;8.52;;
10801;SDS011;5453;50.852;7.102;2022-12-07T10:32:30;14.95;;;7.13;;
10801;SDS011;5453;50.852;7.102;2022-12-07T10:35:18;15.65;;;7.55;;
10801;SDS011;5453;50.852;7.102;2022-12-07T10:37:56;15.68;;;7.60;;
10801;SDS011;5453;50.852;7.102;2022-12-07T10:43:18;16.27;;;7.60;;
10801;SDS011;5453;50.852;7.102;2022-12-07T10:46:05;17.33;;;7.13;;
10801;SDS011;5453;50.852;7.102;2022-12-07T10:48:58;14.35;;;6.18;;
10801;SDS011;5453;50.852;7.102;2022-12-07T10:51:45;14.32;;;6.20;;
10801;SDS011;5453;50.852;7.102;2022-12-07T10:54:26;15.65;;;6.72;;
10801;SDS011;5453;50.852;7.102;2022-12-07T10:57:11;13.38;;;6.03;;
10801;SDS011;5453;50.852;7.102;2022-12-07T11:00:09;12.88;;;5.93;;
10801;SDS011;5453;50.852;7.102;2022-12-07T11:02:58;12.52;;;5.60;;
10801;SDS011;5453;50.852;7.102;2022-12-07T11:05:59;14.05;;;5.85;;
10801;SDS011;5453;50.852;7.102;2022-12-07T11:08:45;14.43;;;5.80;;
10801;SDS011;5453;50.852;7.102;2022-12-07T11:11:32;14.27;;;5.78;;
10801;SDS011;5453;50.852;7.102;2022-12-07T11:14:11;11.50;;;5.57;;
10801;SDS011;5453;50.852;7.102;2022-12-07T11:16:55;14.98;;;5.93;;
10801;SDS011;5453;50.852;7.102;2022-12-07T11:19:34;13.30;;;5.50;;
10801;SDS011;5453;50.852;7.102;2022-12-07T11:22:23;12.80;;;5.40;;
10801;SDS011;5453;50.852;7.102;2022-12-07T11:25:09;12.48;;;5.53;;
10801;SDS011;5453;50.852;7.102;2022-12-07T11:27:56;16.35;;;5.80;;
10801;SDS011;5453;50.852;7.102;2022-12-07T11:30:42;13.90;;;5.82;;
10801;SDS011;5453;50.852;7.102;2022-12-07T11:33:26;9.05;;;4.45;;
10801;SDS011;5453;50.852;7.102;2022-12-07T11:36:09;11.55;;;4.90;;
10801;SDS011;5453;50.852;7.102;2022-12-07T11:39:02;13.02;;;4.97;;
10801;SDS011;5453;50.852;7.102;2022-12-07T11:41:42;11.30;;;5.13;;
10801;SDS011;5453;50.852;7.102;2022-12-07T11:44:19;15.25;;;5.50;;
10801;SDS011;5453;50.852;7.102;2022-12-07T11:47:02;13.70;;;5.30;;
10801;SDS011;5453;50.852;7.102;2022-12-07T11:49:43;14.80;;;5.07;;
10801;SDS011;5453;50.852;7.102;2022-12-07T11:52:25;12.15;;;5.15;;
10801;SDS011;5453;50.852;7.102;2022-12-07T11:55:16;7.85;;;3.90;;
10801;SDS011;5453;50.852;7.102;2022-12-07T11:57:57;9.82;;;4.30;;
10801;SDS011;5453;50.852;7.102;2022-12-07T12:00:34;12.18;;;4.03;;
10801;SDS011;5453;50.852;7.102;2022-12-07T12:03:09;8.02;;;4.32;;
10801;SDS011;5453;50.852;7.102;2022-12-07T12:05:47;11.82;;;4.70;;
10801;SDS011;5453;50.852;7.102;2022-12-07T12:08:21;9.15;;;3.83;;
10801;SDS011;5453;50.852;7.102;2022-12-07T12:11:00;10.70;;;4.35;;
10801;SDS011;5453;50.852;7.102;2022-12-07T12:13:54;8.00;;;3.92;;
10801;SDS011;5453;50.852;7.102;2022-12-07T12:16:49;9.30;;;3.92;;
10801;SDS011;5453;50.852;7.102;2022-12-07T12:19:40;9.73;;;3.75;;
10801;SDS011;5453;50.852;7.102;2022-12-07T12:22:14;10.90;;;4.68;;
10801;SDS011;5453;50.852;7.102;2022-12-07T12:24:52;8.23;;;4.05;;
10801;SDS011;5453;50.852;7.102;2022-12-07T12:27:27;9.70;;;3.17;;
10801;SDS011;5453;50.852;7.102;2022-12-07T12:30:04;9.40;;;3.00;;
10801;SDS011;5453;50.852;7.102;2022-12-07T12:32:39;7.97;;;2.65;;
10801;SDS011;5453;50.852;7.102;2022-12-07T12:35:27;3.50;;;2.40;;
10801;SDS011;5453;50.852;7.102;2022-12-07T12:38:25;7.13;;;2.80;;
10801;SDS011;5453;50.852;7.102;2022-12-07T12:41:04;8.73;;;3.10;;
10801;SDS011;5453;50.852;7.102;2022-12-07T12:43:47;6.60;;;2.78;;
10801;SDS011;5453;50.852;7.102;2022-12-07T12:55:49;7.72;;;3.10;;
10801;SDS011;5453;50.852;7.102;2022-12-07T12:59:18;6.75;;;3.15;;
10801;SDS011;5453;50.852;7.102;2022-12-07T13:02:08;8.95;;;3.50;;
10801;SDS011;5453;50.852;7.102;2022-12-07T13:04:53;8.85;;;3.53;;
10801;SDS011;5453;50.852;7.102;2022-12-07T13:10:28;8.25;;;3.50;;
10801;SDS011;5453;50.852;7.102;2022-12-07T13:13:30;12.23;;;4.75;;
10801;SDS011;5453;50.852;7.102;2022-12-07T13:22:36;13.82;;;5.22;;
10801;SDS011;5453;50.852;7.102;2022-12-07T13:25:28;8.00;;;3.92;;
10801;SDS011;5453;50.852;7.102;2022-12-07T13:28:09;12.35;;;4.32;;
10801;SDS011;5453;50.852;7.102;2022-12-07T13:30:53;13.18;;;4.50;;
10801;SDS011;5453;50.852;7.102;2022-12-07T13:33:43;8.68;;;4.25;;
10801;SDS011;5453;50.852;7.102;2022-12-07T13:36:18;13.13;;;5.07;;
10801;SDS011;5453;50.852;7.102;2022-12-07T13:38:54;12.27;;;5.38;;
10801;SDS011;5453;50.852;7.102;2022-12-07T13:41:28;10.90;;;5.60;;
10801;SDS011;5453;50.852;7.102;2022-12-07T13:44:02;11.40;;;4.68;;
10801;SDS011;5453;50.852;7.102;2022-12-07T13:46:44;38.17;;;17.40;;
10801;SDS011;5453;50.852;7.102;2022-12-07T13:49:27;17.33;;;6.63;;
10801;SDS011;5453;50.852;7.102;2022-12-07T13:54:46;13.02;;;5.93;;
10801;SDS011;5453;50.852;7.102;2022-12-07T13:57:20;11.27;;;5.43;;
10801;SDS011;5453;50.852;7.102;2022-12-07T13:59:53;9.98;;;5.18;;
10801;SDS011;5453;50.852;7.102;2022-12-07T14:02:27;16.08;;;5.95;;
10801;SDS011;5453;50.852;7.102;2022-12-07T14:05:07;10.43;;;4.68;;
10801;SDS011;5453;50.852;7.102;2022-12-07T14:07:53;9.35;;;4.53;;
10801;SDS011;5453;50.852;7.102;2022-12-07T14:10:28;12.32;;;4.93;;
10801;SDS011;5453;50.852;7.102;2022-12-07T14:16:00;7.88;;;3.78;;
10801;SDS011;5453;50.852;7.102;2022-12-07T14:18:37;10.75;;;4.82;;
10801;SDS011;5453;50.852;7.102;2022-12-07T14:21:14;11.77;;;4.40;;
10801;SDS011;5453;50.852;7.102;2022-12-07T14:24:02;11.70;;;4.82;;
10801;SDS011;5453;50.852;7.102;2022-12-07T14:26:46;9.82;;;4.20;;
10801;SDS011;5453;50.852;7.102;2022-12-07T14:29:27;9.73;;;4.00;;
10801;SDS011;5453;50.852;7.102;2022-12-07T14:32:18;10.23;;;4.50;;
10801;SDS011;5453;50.852;7.102;2022-12-07T14:35:00;9.05;;;3.60;;
10801;SDS011;5453;50.852;7.102;2022-12-07T14:37:34;6.88;;;3.97;;
10801;SDS011;5453;50.852;7.102;2022-12-07T14:40:11;9.40;;;4.32;;
10801;SDS011;5453;50.852;7.102;2022-12-07T14:42:45;8.43;;;4.43;;
10801;SDS011;5453;50.852;7.102;2022-12-07T14:45:21;6.93;;;3.42;;
10801;SDS011;5453;50.852;7.102;2022-12-07T14:47:54;6.50;;;2.92;;
10801;SDS011;5453;50.852;7.102;2022-12-07T14:50:27;6.63;;;3.35;;
10801;SDS011;5453;50.852;7.102;2022-12-07T14:53:01;10.02;;;4.43;;
10801;SDS011;5453;50.852;7.102;2022-12-07T14:55:41;10.35;;;5.28;;
10801;SDS011;5453;50.852;7.102;2022-12-07T14:58:14;7.80;;;3.60;;
10801;SDS011;5453;50.852;7.102;2022-12-07T15:00:48;6.53;;;3.25;;
10801;SDS011;5453;50.852;7.102;2022-12-07T15:03:20;7.60;;;3.53;;
10801;SDS011;5453;50.852;7.102;2022-12-07T15:05:55;5.15;;;2.70;;
10801;SDS011;5453;50.852;7.102;2022-12-07T15:08:28;5.05;;;2.83;;
10801;SDS011;5453;50.852;7.102;2022-12-07T15:11:00;4.28;;;3.20;;
10801;SDS011;5453;50.852;7.102;2022-12-07T15:13:35;5.97;;;3.00;;
10801;SDS011;5453;50.852;7.102;2022-12-07T15:16:25;6.40;;;3.30;;
10801;SDS011;5453;50.852;7.102;2022-12-07T15:18:57;6.13;;;3.50;;
10801;SDS011;5453;50.852;7.102;2022-12-07T15:21:31;5.90;;;3.00;;
10801;SDS011;5453;50.852;7.102;2022-12-07T15:24:03;6.57;;;3.65;;
10801;SDS011;5453;50.852;7.102;2022-12-07T15:26:36;5.78;;;3.10;;
10801;SDS011;5453;50.852;7.102;2022-12-07T15:29:09;6.03;;;3.53;;
10801;SDS011;5453;50.852;7.102;2022-12-07T15:31:42;6.68;;;3.22;;
10801;SDS011;5453;50.852;7.102;2022-12-07T15:34:15;6.80;;;3.60;;
10801;SDS011;5453;50.852;7.102;2022-12-07T15:36:49;8.07;;;4.18;;
10801;SDS011;5453;50.852;7.102;2022-12-07T15:39:21;14.25;;;6.22;;
10801;SDS011;5453;50.852;7.102;2022-12-07T15:41:53;14.02;;;5.95;;
10801;SDS011;5453;50.852;7.102;2022-12-07T15:44:25;11.07;;;5.57;;
10801;SDS011;5453;50.852;7.102;2022-12-07T15:47:15;10.40;;;5.35;;
10801;SDS011;5453;50.852;7.102;2022-12-07T15:49:47;10.20;;;5.30;;
10801;SDS011;5453;50.852;7.102;2022-12-07T15:52:20;10.15;;;5.85;;
10801;SDS011;5453;50.852;7.102;2022-12-07T15:54:53;8.77;;;5.13;;
10801;SDS011;5453;50.852;7.102;2022-12-07T15:57:25;9.57;;;4.85;;
10801;SDS011;5453;50.852;7.102;2022-12-07T15:59:57;8.75;;;4.57;;
10801;SDS011;5453;50.852;7.102;2022-12-07T16:02:30;7.80;;;5.10;;
10801;SDS011;5453;50.852;7.102;2022-12-07T16:05:02;8.70;;;4.60;;
10801;SDS011;5453;50.852;7.102;2022-12-07T16:07:37;8.10;;;4.45;;
10801;SDS011;5453;50.852;7.102;2022-12-07T16:10:09;7.72;;;4.50;;
10801;SDS011;5453;50.852;7.102;2022-12-07T16:12:42;11.88;;;4.70;;